sensor_id;sensor_type;location;lat;lon;timestamp;pressure;altitude;pressure_sealevel;temperature;humidity
70127;BME280;57491;42.694;23.314;2023-04-08T00:02:09;95207.09;;;9.27;51.00
70127;BME280;57491;42.694;23.314;2023-04-08T00:04:36;95201.91;;;9.27;50.22
70127;BME280;57491;42.694;23.314;2023-04-08T00:07:03;95198.66;;;9.25;50.09
70127;BME280;57491;42.694;23.314;2023-04-08T00:09:31;95210.97;;;9.23;49.22
70127;BME280;57491;42.694;23.314;2023-04-08T00:11:59;95202.91;;;9.18;49.24
70127;BME280;57491;42.694;23.314;2023-04-08T00:14:26;95203.41;;;9.14;49.33
70127;BME280;57491;42.694;23.314;2023-04-08T00:16:55;95202.94;;;9.02;49.87
70127;BME280;57491;42.694;23.314;2023-04-08T00:19:22;95209.13;;;8.93;49.75
70127;BME280;57491;42.694;23.314;2023-04-08T00:21:49;95203.31;;;8.83;50.67
70127;BME280;57491;42.694;23.314;2023-04-08T00:24:18;95191.50;;;8.72;51.05
70127;BME280;57491;42.694;23.314;2023-04-08T00:26:44;95197.81;;;8.70;52.87
70127;BME280;57491;42.694;23.314;2023-04-08T00:29:12;95200.91;;;8.73;50.43
70127;BME280;57491;42.694;23.314;2023-04-08T00:31:39;95203.66;;;8.72;50.42
70127;BME280;57491;42.694;23.314;2023-04-08T00:34:08;95203.97;;;8.77;53.02
70127;BME280;57491;42.694;23.314;2023-04-08T00:36:35;95208.34;;;8.84;54.16
70127;BME280;57491;42.694;23.314;2023-04-08T00:39:02;95195.84;;;8.88;53.54
70127;BME280;57491;42.694;23.314;2023-04-08T00:41:32;95205.09;;;8.90;53.80
70127;BME280;57491;42.694;23.314;2023-04-08T00:43:59;95212.69;;;8.92;52.03
70127;BME280;57491;42.694;23.314;2023-04-08T00:46:26;95208.81;;;8.80;50.78
70127;BME280;57491;42.694;23.314;2023-04-08T00:48:53;95203.31;;;8.75;52.69
70127;BME280;57491;42.694;23.314;2023-04-08T00:51:22;95210.63;;;8.63;51.92
70127;BME280;57491;42.694;23.314;2023-04-08T00:53:49;95218.25;;;8.57;52.31
70127;BME280;57491;42.694;23.314;2023-04-08T00:56:16;95214.38;;;8.44;52.00
70127;BME280;57491;42.694;23.314;2023-04-08T00:58:43;95212.91;;;8.34;54.93
70127;BME280;57491;42.694;23.314;2023-04-08T01:01:14;95216.50;;;8.33;55.26
70127;BME280;57491;42.694;23.314;2023-04-08T01:03:51;95220.31;;;8.29;54.65
70127;BME280;57491;42.694;23.314;2023-04-08T01:06:27;95212.41;;;8.30;55.71
70127;BME280;57491;42.694;23.314;2023-04-08T01:08:58;95219.81;;;8.25;54.25
70127;BME280;57491;42.694;23.314;2023-04-08T01:11:26;95225.22;;;8.32;55.45
70127;BME280;57491;42.694;23.314;2023-04-08T01:13:56;95219.22;;;8.31;54.97
70127;BME280;57491;42.694;23.314;2023-04-08T01:16:25;95220.53;;;8.35;55.35
70127;BME280;57491;42.694;23.314;2023-04-08T01:18:53;95220.38;;;8.37;53.85
70127;BME280;57491;42.694;23.314;2023-04-08T01:21:24;95219.88;;;8.41;55.28
70127;BME280;57491;42.694;23.314;2023-04-08T01:23:58;95217.94;;;8.43;54.90
70127;BME280;57491;42.694;23.314;2023-04-08T01:26:29;95222.28;;;8.43;54.50
70127;BME280;57491;42.694;23.314;2023-04-08T01:28:58;95222.44;;;8.33;52.29
70127;BME280;57491;42.694;23.314;2023-04-08T01:31:27;95219.50;;;8.20;53.14
70127;BME280;57491;42.694;23.314;2023-04-08T01:33:55;95205.25;;;7.92;52.49
70127;BME280;57491;42.694;23.314;2023-04-08T01:36:23;95220.09;;;7.74;52.83
70127;BME280;57491;42.694;23.314;2023-04-08T01:38:51;95210.03;;;7.71;53.18
70127;BME280;57491;42.694;23.314;2023-04-08T01:41:19;95212.94;;;7.68;53.26
70127;BME280;57491;42.694;23.314;2023-04-08T01:43:48;95218.31;;;7.82;54.34
70127;BME280;57491;42.694;23.314;2023-04-08T01:46:17;95214.13;;;7.89;52.64
70127;BME280;57491;42.694;23.314;2023-04-08T01:48:44;95217.84;;;7.79;52.16
70127;BME280;57491;42.694;23.314;2023-04-08T01:51:13;95212.19;;;7.83;53.09
70127;BME280;57491;42.694;23.314;2023-04-08T01:53:41;95208.31;;;7.87;53.90
70127;BME280;57491;42.694;23.314;2023-04-08T01:56:11;95219.78;;;7.93;52.75
70127;BME280;57491;42.694;23.314;2023-04-08T01:58:41;95226.72;;;7.84;51.95
70127;BME280;57491;42.694;23.314;2023-04-08T02:01:13;95222.78;;;7.56;52.29
70127;BME280;57491;42.694;23.314;2023-04-08T02:03:44;95225.72;;;7.69;53.01
70127;BME280;57491;42.694;23.314;2023-04-08T02:06:12;95235.00;;;7.88;53.08
70127;BME280;57491;42.694;23.314;2023-04-08T02:08:40;95252.66;;;8.00;54.26
70127;BME280;57491;42.694;23.314;2023-04-08T02:11:07;95242.31;;;8.08;53.71
70127;BME280;57491;42.694;23.314;2023-04-08T02:13:34;95244.75;;;8.10;55.50
70127;BME280;57491;42.694;23.314;2023-04-08T02:16:04;95252.19;;;8.13;55.93
70127;BME280;57491;42.694;23.314;2023-04-08T02:18:36;95238.44;;;8.04;57.46
70127;BME280;57491;42.694;23.314;2023-04-08T02:21:12;95250.22;;;8.07;54.56
70127;BME280;57491;42.694;23.314;2023-04-08T02:23:40;95243.13;;;8.01;55.24
70127;BME280;57491;42.694;23.314;2023-04-08T02:26:12;95245.53;;;7.94;54.68
70127;BME280;57491;42.694;23.314;2023-04-08T02:28:40;95246.81;;;7.90;56.63
70127;BME280;57491;42.694;23.314;2023-04-08T02:31:09;95246.63;;;7.84;58.52
70127;BME280;57491;42.694;23.314;2023-04-08T02:33:40;95243.88;;;7.85;58.71
70127;BME280;57491;42.694;23.314;2023-04-08T02:36:08;95243.75;;;7.95;58.46
70127;BME280;57491;42.694;23.314;2023-04-08T02:38:37;95240.84;;;7.98;57.38
70127;BME280;57491;42.694;23.314;2023-04-08T02:41:04;95238.25;;;7.98;56.81
70127;BME280;57491;42.694;23.314;2023-04-08T02:43:31;95248.47;;;8.07;57.47
70127;BME280;57491;42.694;23.314;2023-04-08T02:45:58;95249.28;;;8.08;57.20
70127;BME280;57491;42.694;23.314;2023-04-08T02:48:27;95226.91;;;7.99;56.12
70127;BME280;57491;42.694;23.314;2023-04-08T02:50:56;95247.97;;;8.12;57.57
70127;BME280;57491;42.694;23.314;2023-04-08T02:53:23;95236.19;;;8.10;57.55
70127;BME280;57491;42.694;23.314;2023-04-08T02:55:51;95208.31;;;7.95;57.41
70127;BME280;57491;42.694;23.314;2023-04-08T02:58:18;95236.34;;;8.16;56.58
70127;BME280;57491;42.694;23.314;2023-04-08T03:00:45;95241.34;;;8.18;57.63
70127;BME280;57491;42.694;23.314;2023-04-08T03:03:12;95240.22;;;8.20;57.03
70127;BME280;57491;42.694;23.314;2023-04-08T03:05:40;95250.91;;;8.25;57.62
70127;BME280;57491;42.694;23.314;2023-04-08T03:08:08;95246.53;;;8.26;56.48
70127;BME280;57491;42.694;23.314;2023-04-08T03:10:35;95243.81;;;8.27;55.98
70127;BME280;57491;42.694;23.314;2023-04-08T03:13:02;95242.84;;;8.28;56.37
70127;BME280;57491;42.694;23.314;2023-04-08T03:15:29;95242.22;;;8.34;57.28
70127;BME280;57491;42.694;23.314;2023-04-08T03:17:56;95242.22;;;8.34;57.18
70127;BME280;57491;42.694;23.314;2023-04-08T03:20:23;95242.03;;;8.28;55.04
70127;BME280;57491;42.694;23.314;2023-04-08T03:22:51;95224.81;;;8.11;56.50
70127;BME280;57491;42.694;23.314;2023-04-08T03:25:19;95244.44;;;8.21;57.31
70127;BME280;57491;42.694;23.314;2023-04-08T03:27:46;95242.81;;;8.20;56.28
70127;BME280;57491;42.694;23.314;2023-04-08T03:30:13;95239.59;;;8.26;56.79
70127;BME280;57491;42.694;23.314;2023-04-08T03:32:40;95253.88;;;8.30;56.92
70127;BME280;57491;42.694;23.314;2023-04-08T03:35:08;95244.47;;;8.29;55.30
70127;BME280;57491;42.694;23.314;2023-04-08T03:37:35;95242.31;;;8.25;54.66
70127;BME280;57491;42.694;23.314;2023-04-08T03:40:02;95236.19;;;8.26;56.57
70127;BME280;57491;42.694;23.314;2023-04-08T03:42:31;95245.13;;;8.31;57.03
70127;BME280;57491;42.694;23.314;2023-04-08T03:44:59;95248.19;;;8.35;56.83
70127;BME280;57491;42.694;23.314;2023-04-08T03:47:26;95249.97;;;8.34;55.94
70127;BME280;57491;42.694;23.314;2023-04-08T03:49:54;95241.56;;;8.32;55.94
70127;BME280;57491;42.694;23.314;2023-04-08T03:52:21;95245.56;;;8.19;54.95
70127;BME280;57491;42.694;23.314;2023-04-08T03:54:49;95247.03;;;8.21;55.42
70127;BME280;57491;42.694;23.314;2023-04-08T03:57:16;95246.06;;;8.22;54.70
70127;BME280;57491;42.694;23.314;2023-04-08T03:59:44;95239.94;;;8.31;56.01
70127;BME280;57491;42.694;23.314;2023-04-08T04:02:11;95245.94;;;8.32;56.73
70127;BME280;57491;42.694;23.314;2023-04-08T04:04:38;95243.34;;;8.32;56.06
70127;BME280;57491;42.694;23.314;2023-04-08T04:07:05;95241.88;;;8.29;54.52
70127;BME280;57491;42.694;23.314;2023-04-08T04:09:32;95239.44;;;8.28;54.87
70127;BME280;57491;42.694;23.314;2023-04-08T04:11:59;95238.31;;;8.30;53.92
70127;BME280;57491;42.694;23.314;2023-04-08T04:14:26;95246.09;;;8.30;52.89
70127;BME280;57491;42.694;23.314;2023-04-08T04:16:55;95247.06;;;8.29;54.45
70127;BME280;57491;42.694;23.314;2023-04-08T04:19:22;95248.69;;;8.30;54.39
70127;BME280;57491;42.694;23.314;2023-04-08T04:21:49;95246.69;;;8.24;53.37
70127;BME280;57491;42.694;23.314;2023-04-08T04:24:16;95253.72;;;8.32;54.04
70127;BME280;57491;42.694;23.314;2023-04-08T04:26:43;95263.38;;;8.22;54.06
70127;BME280;57491;42.694;23.314;2023-04-08T04:29:10;95258.34;;;8.20;55.32
70127;BME280;57491;42.694;23.314;2023-04-08T04:31:37;95259.34;;;8.19;54.70
70127;BME280;57491;42.694;23.314;2023-04-08T04:34:06;95256.09;;;8.17;53.54
70127;BME280;57491;42.694;23.314;2023-04-08T04:36:33;95259.16;;;8.21;54.17
70127;BME280;57491;42.694;23.314;2023-04-08T04:39:00;95265.34;;;8.28;55.94
70127;BME280;57491;42.694;23.314;2023-04-08T04:41:28;95258.72;;;8.33;55.27
70127;BME280;57491;42.694;23.314;2023-04-08T04:43:55;95260.19;;;8.36;53.43
70127;BME280;57491;42.694;23.314;2023-04-08T04:46:22;95260.03;;;8.37;53.88
70127;BME280;57491;42.694;23.314;2023-04-08T04:48:49;95263.75;;;8.43;55.80
70127;BME280;57491;42.694;23.314;2023-04-08T04:51:17;95256.78;;;8.43;52.04
70127;BME280;57491;42.694;23.314;2023-04-08T04:53:44;95265.53;;;8.42;53.01
70127;BME280;57491;42.694;23.314;2023-04-08T04:56:11;95256.63;;;8.45;53.46
70127;BME280;57491;42.694;23.314;2023-04-08T04:58:38;95264.56;;;8.51;55.43
70127;BME280;57491;42.694;23.314;2023-04-08T05:01:06;95273.97;;;8.52;54.77
70127;BME280;57491;42.694;23.314;2023-04-08T05:03:33;95266.34;;;8.51;51.46
70127;BME280;57491;42.694;23.314;2023-04-08T05:06:01;95269.75;;;8.35;49.96
70127;BME280;57491;42.694;23.314;2023-04-08T05:08:29;95268.22;;;8.25;50.18
70127;BME280;57491;42.694;23.314;2023-04-08T05:10:56;95271.28;;;8.12;53.56
70127;BME280;57491;42.694;23.314;2023-04-08T05:13:26;95261.41;;;8.16;53.88
70127;BME280;57491;42.694;23.314;2023-04-08T05:15:53;95267.78;;;8.29;54.80
70127;BME280;57491;42.694;23.314;2023-04-08T05:18:20;95268.78;;;8.36;51.45
70127;BME280;57491;42.694;23.314;2023-04-08T05:20:47;95264.75;;;8.42;51.87
70127;BME280;57491;42.694;23.314;2023-04-08T05:23:14;95263.94;;;8.49;50.86
70127;BME280;57491;42.694;23.314;2023-04-08T05:25:43;95271.53;;;8.43;50.32
70127;BME280;57491;42.694;23.314;2023-04-08T05:28:10;95269.13;;;8.41;49.99
70127;BME280;57491;42.694;23.314;2023-04-08T05:30:37;95266.84;;;8.46;51.87
70127;BME280;57491;42.694;23.314;2023-04-08T05:33:04;95267.34;;;8.58;51.52
70127;BME280;57491;42.694;23.314;2023-04-08T05:35:31;95260.34;;;8.67;50.74
70127;BME280;57491;42.694;23.314;2023-04-08T05:37:58;95263.25;;;8.88;51.09
70127;BME280;57491;42.694;23.314;2023-04-08T05:40:25;95248.19;;;8.91;49.07
70127;BME280;57491;42.694;23.314;2023-04-08T05:42:53;95270.84;;;9.14;49.54
70127;BME280;57491;42.694;23.314;2023-04-08T05:45:23;95275.34;;;9.28;48.66
70127;BME280;57491;42.694;23.314;2023-04-08T05:47:50;95268.69;;;9.33;48.73
70127;BME280;57491;42.694;23.314;2023-04-08T05:50:18;95250.53;;;9.33;48.69
70127;BME280;57491;42.694;23.314;2023-04-08T05:52:45;95268.84;;;9.40;48.67
70127;BME280;57491;42.694;23.314;2023-04-08T05:55:13;95264.59;;;9.47;49.09
70127;BME280;57491;42.694;23.314;2023-04-08T05:57:40;95267.19;;;9.47;48.36
70127;BME280;57491;42.694;23.314;2023-04-08T06:00:09;95261.81;;;9.57;48.85
70127;BME280;57491;42.694;23.314;2023-04-08T06:02:37;95267.31;;;9.62;48.75
70127;BME280;57491;42.694;23.314;2023-04-08T06:05:04;95252.97;;;9.74;48.73
70127;BME280;57491;42.694;23.314;2023-04-08T06:07:32;95258.38;;;9.95;48.80
70127;BME280;57491;42.694;23.314;2023-04-08T06:09:59;95260.00;;;9.96;48.31
70127;BME280;57491;42.694;23.314;2023-04-08T06:12:26;95260.59;;;10.06;48.22
70127;BME280;57491;42.694;23.314;2023-04-08T06:14:54;95243.84;;;10.09;47.17
70127;BME280;57491;42.694;23.314;2023-04-08T06:17:22;95249.91;;;10.32;47.22
70127;BME280;57491;42.694;23.314;2023-04-08T06:19:49;95263.09;;;10.31;46.43
70127;BME280;57491;42.694;23.314;2023-04-08T06:22:16;95253.63;;;10.38;46.31
70127;BME280;57491;42.694;23.314;2023-04-08T06:24:45;95252.28;;;10.42;46.68
70127;BME280;57491;42.694;23.314;2023-04-08T06:27:13;95256.91;;;10.54;46.44
70127;BME280;57491;42.694;23.314;2023-04-08T06:29:40;95260.66;;;10.52;46.96
70127;BME280;57491;42.694;23.314;2023-04-08T06:32:07;95258.53;;;10.33;46.35
70127;BME280;57491;42.694;23.314;2023-04-08T06:34:35;95257.09;;;10.30;47.10
70127;BME280;57491;42.694;23.314;2023-04-08T06:37:03;95250.16;;;10.14;47.41
70127;BME280;57491;42.694;23.314;2023-04-08T06:39:30;95269.13;;;10.23;47.43
70127;BME280;57491;42.694;23.314;2023-04-08T06:41:58;95258.88;;;9.99;48.25
70127;BME280;57491;42.694;23.314;2023-04-08T06:44:25;95269.53;;;9.73;49.28
70127;BME280;57491;42.694;23.314;2023-04-08T06:46:52;95270.88;;;9.61;49.64
70127;BME280;57491;42.694;23.314;2023-04-08T06:49:19;95271.75;;;9.45;49.80
70127;BME280;57491;42.694;23.314;2023-04-08T06:51:47;95261.56;;;9.35;50.44
70127;BME280;57491;42.694;23.314;2023-04-08T06:54:15;95270.81;;;9.30;50.23
70127;BME280;57491;42.694;23.314;2023-04-08T06:56:42;95270.38;;;9.18;51.54
70127;BME280;57491;42.694;23.314;2023-04-08T06:59:09;95271.09;;;9.43;50.52
70127;BME280;57491;42.694;23.314;2023-04-08T07:01:36;95268.56;;;9.27;51.32
70127;BME280;57491;42.694;23.314;2023-04-08T07:04:03;95267.53;;;9.44;51.05
70127;BME280;57491;42.694;23.314;2023-04-08T07:06:30;95262.53;;;9.81;51.51
70127;BME280;57491;42.694;23.314;2023-04-08T07:08:58;95265.94;;;10.13;51.04
70127;BME280;57491;42.694;23.314;2023-04-08T07:11:25;95260.44;;;10.08;50.08
70127;BME280;57491;42.694;23.314;2023-04-08T07:13:52;95267.34;;;10.23;49.47
70127;BME280;57491;42.694;23.314;2023-04-08T07:16:19;95264.88;;;10.30;49.31
70127;BME280;57491;42.694;23.314;2023-04-08T07:18:46;95270.72;;;10.55;48.85
70127;BME280;57491;42.694;23.314;2023-04-08T07:21:13;95279.97;;;10.80;48.89
70127;BME280;57491;42.694;23.314;2023-04-08T07:23:41;95277.94;;;11.05;48.70
70127;BME280;57491;42.694;23.314;2023-04-08T07:26:09;95271.59;;;11.22;47.21
70127;BME280;57491;42.694;23.314;2023-04-08T07:28:36;95280.84;;;11.25;46.38
70127;BME280;57491;42.694;23.314;2023-04-08T07:31:11;95285.00;;;11.34;45.99
70127;BME280;57491;42.694;23.314;2023-04-08T07:33:38;95285.59;;;11.36;46.39
70127;BME280;57491;42.694;23.314;2023-04-08T07:36:05;95286.19;;;11.60;45.90
70127;BME280;57491;42.694;23.314;2023-04-08T07:38:33;95280.69;;;11.85;45.16
70127;BME280;57491;42.694;23.314;2023-04-08T07:41:00;95289.22;;;12.08;45.33
70127;BME280;57491;42.694;23.314;2023-04-08T07:43:29;95280.72;;;12.21;45.38
70127;BME280;57491;42.694;23.314;2023-04-08T07:45:59;95288.25;;;12.30;44.66
70127;BME280;57491;42.694;23.314;2023-04-08T07:48:28;95296.63;;;12.26;45.30
70127;BME280;57491;42.694;23.314;2023-04-08T07:50:55;95293.50;;;12.51;44.57
70127;BME280;57491;42.694;23.314;2023-04-08T07:53:22;95296.34;;;12.57;44.73
70127;BME280;57491;42.694;23.314;2023-04-08T07:55:51;95303.53;;;12.69;43.63
70127;BME280;57491;42.694;23.314;2023-04-08T07:58:18;95298.53;;;12.74;43.92
70127;BME280;57491;42.694;23.314;2023-04-08T08:00:46;95301.28;;;12.87;43.51
70127;BME280;57491;42.694;23.314;2023-04-08T08:03:13;95313.03;;;12.77;42.92
70127;BME280;57491;42.694;23.314;2023-04-08T08:05:40;95311.53;;;12.32;43.48
70127;BME280;57491;42.694;23.314;2023-04-08T08:08:07;95322.28;;;12.43;44.77
70127;BME280;57491;42.694;23.314;2023-04-08T08:10:36;95317.03;;;12.58;45.13
70127;BME280;57491;42.694;23.314;2023-04-08T08:13:03;95310.84;;;12.80;45.41
70127;BME280;57491;42.694;23.314;2023-04-08T08:15:30;95316.69;;;13.04;43.99
70127;BME280;57491;42.694;23.314;2023-04-08T08:17:58;95315.81;;;13.18;43.71
70127;BME280;57491;42.694;23.314;2023-04-08T08:20:25;95311.41;;;13.18;44.28
70127;BME280;57491;42.694;23.314;2023-04-08T08:22:52;95305.97;;;13.41;43.44
70127;BME280;57491;42.694;23.314;2023-04-08T08:25:20;95306.94;;;13.40;42.91
70127;BME280;57491;42.694;23.314;2023-04-08T08:27:47;95299.84;;;13.55;42.50
70127;BME280;57491;42.694;23.314;2023-04-08T08:30:14;95302.28;;;13.63;44.06
70127;BME280;57491;42.694;23.314;2023-04-08T08:32:41;95315.03;;;13.79;42.82
70127;BME280;57491;42.694;23.314;2023-04-08T08:35:10;95318.28;;;13.81;41.82
70127;BME280;57491;42.694;23.314;2023-04-08T08:37:37;95311.75;;;13.64;42.39
70127;BME280;57491;42.694;23.314;2023-04-08T08:40:04;95316.97;;;13.64;42.70
70127;BME280;57491;42.694;23.314;2023-04-08T08:42:31;95310.56;;;13.73;42.92
70127;BME280;57491;42.694;23.314;2023-04-08T08:45:00;95315.69;;;13.26;41.90
70127;BME280;57491;42.694;23.314;2023-04-08T08:47:28;95307.75;;;13.40;42.75
70127;BME280;57491;42.694;23.314;2023-04-08T08:49:56;95298.13;;;13.41;42.04
70127;BME280;57491;42.694;23.314;2023-04-08T08:52:24;95299.63;;;13.29;43.38
70127;BME280;57491;42.694;23.314;2023-04-08T08:54:56;95303.00;;;13.23;43.85
70127;BME280;57491;42.694;23.314;2023-04-08T08:57:24;95309.41;;;13.20;42.91
70127;BME280;57491;42.694;23.314;2023-04-08T08:59:52;95309.47;;;13.06;43.87
70127;BME280;57491;42.694;23.314;2023-04-08T09:02:23;95307.47;;;12.44;44.62
70127;BME280;57491;42.694;23.314;2023-04-08T09:04:56;95321.13;;;12.46;44.72
70127;BME280;57491;42.694;23.314;2023-04-08T09:07:25;95317.03;;;12.58;44.43
70127;BME280;57491;42.694;23.314;2023-04-08T09:09:54;95316.31;;;12.85;45.01
70127;BME280;57491;42.694;23.314;2023-04-08T09:12:21;95318.09;;;13.06;44.54
70127;BME280;57491;42.694;23.314;2023-04-08T09:14:49;95310.69;;;13.31;43.18
70127;BME280;57491;42.694;23.314;2023-04-08T09:17:30;95309.78;;;13.17;42.81
70127;BME280;57491;42.694;23.314;2023-04-08T09:20:05;95317.63;;;13.45;43.07
70127;BME280;57491;42.694;23.314;2023-04-08T09:25:22;95309.59;;;14.63;41.63
70127;BME280;57491;42.694;23.314;2023-04-08T09:27:49;95307.38;;;14.86;39.75
70127;BME280;57491;42.694;23.314;2023-04-08T09:30:17;95308.41;;;15.31;39.60
70127;BME280;57491;42.694;23.314;2023-04-08T09:32:48;95308.59;;;15.89;38.01
70127;BME280;57491;42.694;23.314;2023-04-08T09:35:16;95302.91;;;16.49;36.77
70127;BME280;57491;42.694;23.314;2023-04-08T09:37:46;95298.72;;;17.11;36.45
70127;BME280;57491;42.694;23.314;2023-04-08T09:40:13;95287.50;;;17.72;34.29
70127;BME280;57491;42.694;23.314;2023-04-08T09:42:44;95295.28;;;18.21;33.49
70127;BME280;57491;42.694;23.314;2023-04-08T09:45:14;95290.94;;;17.72;33.30
70127;BME280;57491;42.694;23.314;2023-04-08T09:47:50;95288.84;;;17.99;33.59
70127;BME280;57491;42.694;23.314;2023-04-08T09:50:22;95288.72;;;18.60;32.70
70127;BME280;57491;42.694;23.314;2023-04-08T09:53:01;95282.72;;;19.25;31.13
70127;BME280;57491;42.694;23.314;2023-04-08T09:55:35;95284.69;;;19.41;31.25
70127;BME280;57491;42.694;23.314;2023-04-08T09:58:03;95271.53;;;19.99;30.18
70127;BME280;57491;42.694;23.314;2023-04-08T10:00:38;95275.59;;;20.18;29.80
70127;BME280;57491;42.694;23.314;2023-04-08T10:03:13;95278.41;;;19.88;29.76
70127;BME280;57491;42.694;23.314;2023-04-08T10:05:46;95268.97;;;20.04;30.09
70127;BME280;57491;42.694;23.314;2023-04-08T10:08:15;95265.91;;;20.75;28.90
70127;BME280;57491;42.694;23.314;2023-04-08T10:10:43;95274.66;;;20.36;28.77
70127;BME280;57491;42.694;23.314;2023-04-08T10:13:11;95272.09;;;19.89;29.80
70127;BME280;57491;42.694;23.314;2023-04-08T10:15:39;95271.66;;;19.69;29.73
70127;BME280;57491;42.694;23.314;2023-04-08T10:18:39;95267.03;;;19.18;30.92
70127;BME280;57491;42.694;23.314;2023-04-08T10:21:31;95251.78;;;19.78;30.05
70127;BME280;57491;42.694;23.314;2023-04-08T10:24:00;95262.50;;;20.23;29.78
70127;BME280;57491;42.694;23.314;2023-04-08T10:26:41;95258.31;;;19.87;30.10
70127;BME280;57491;42.694;23.314;2023-04-08T10:29:42;95244.78;;;19.37;30.49
70127;BME280;57491;42.694;23.314;2023-04-08T10:32:28;95261.84;;;19.23;30.65
70127;BME280;57491;42.694;23.314;2023-04-08T10:34:55;95254.84;;;19.05;31.05
70127;BME280;57491;42.694;23.314;2023-04-08T10:37:23;95245.53;;;18.91;31.37
70127;BME280;57491;42.694;23.314;2023-04-08T10:39:53;95241.44;;;18.36;32.18
70127;BME280;57491;42.694;23.314;2023-04-08T10:42:26;95246.31;;;17.84;32.85
70127;BME280;57491;42.694;23.314;2023-04-08T10:44:53;95251.53;;;16.73;34.14
70127;BME280;57491;42.694;23.314;2023-04-08T10:47:24;95248.75;;;16.93;34.03
70127;BME280;57491;42.694;23.314;2023-04-08T10:49:51;95244.72;;;16.66;34.97
70127;BME280;57491;42.694;23.314;2023-04-08T10:52:18;95236.63;;;16.23;35.37
70127;BME280;57491;42.694;23.314;2023-04-08T10:54:46;95235.06;;;16.15;36.09
70127;BME280;57491;42.694;23.314;2023-04-08T10:57:22;95234.16;;;16.34;36.43
70127;BME280;57491;42.694;23.314;2023-04-08T10:59:50;95225.22;;;16.04;35.71
70127;BME280;57491;42.694;23.314;2023-04-08T11:02:17;95220.03;;;15.91;36.15
70127;BME280;57491;42.694;23.314;2023-04-08T11:04:44;95220.47;;;16.64;35.64
70127;BME280;57491;42.694;23.314;2023-04-08T11:07:13;95212.38;;;16.97;34.54
70127;BME280;57491;42.694;23.314;2023-04-08T11:09:40;95212.28;;;17.03;34.77
70127;BME280;57491;42.694;23.314;2023-04-08T11:12:09;95221.84;;;16.73;34.63
70127;BME280;57491;42.694;23.314;2023-04-08T11:14:37;95217.56;;;16.40;35.06
70127;BME280;57491;42.694;23.314;2023-04-08T11:17:06;95206.94;;;16.29;35.55
70127;BME280;57491;42.694;23.314;2023-04-08T11:19:34;95215.94;;;15.50;36.47
70127;BME280;57491;42.694;23.314;2023-04-08T11:22:02;95216.75;;;15.44;36.67
70127;BME280;57491;42.694;23.314;2023-04-08T11:24:31;95196.97;;;15.61;35.60
70127;BME280;57491;42.694;23.314;2023-04-08T11:26:58;95213.44;;;16.58;34.66
70127;BME280;57491;42.694;23.314;2023-04-08T11:29:28;95199.13;;;17.71;32.81
70127;BME280;57491;42.694;23.314;2023-04-08T11:31:57;95197.66;;;17.75;31.91
70127;BME280;57491;42.694;23.314;2023-04-08T11:34:24;95190.28;;;16.79;33.28
70127;BME280;57491;42.694;23.314;2023-04-08T11:36:52;95196.25;;;16.93;32.82
70127;BME280;57491;42.694;23.314;2023-04-08T11:39:21;95189.63;;;16.52;33.31
70127;BME280;57491;42.694;23.314;2023-04-08T11:41:49;95191.59;;;16.64;33.83
70127;BME280;57491;42.694;23.314;2023-04-08T11:44:15;95185.19;;;16.60;33.34
70127;BME280;57491;42.694;23.314;2023-04-08T11:46:51;95163.38;;;16.21;33.94
70127;BME280;57491;42.694;23.314;2023-04-08T11:49:21;95182.28;;;16.36;34.28
70127;BME280;57491;42.694;23.314;2023-04-08T11:51:58;95174.38;;;16.05;34.50
70127;BME280;57491;42.694;23.314;2023-04-08T11:54:25;95181.00;;;15.63;34.43
70127;BME280;57491;42.694;23.314;2023-04-08T11:56:53;95172.69;;;15.02;35.36
70127;BME280;57491;42.694;23.314;2023-04-08T11:59:20;95164.25;;;14.80;35.74
70127;BME280;57491;42.694;23.314;2023-04-08T12:01:47;95172.09;;;14.47;36.62
70127;BME280;57491;42.694;23.314;2023-04-08T12:04:14;95175.16;;;13.90;37.50
70127;BME280;57491;42.694;23.314;2023-04-08T12:06:43;95167.47;;;13.75;37.88
70127;BME280;57491;42.694;23.314;2023-04-08T12:09:11;95172.75;;;13.82;38.44
70127;BME280;57491;42.694;23.314;2023-04-08T12:11:38;95151.44;;;13.92;38.07
70127;BME280;57491;42.694;23.314;2023-04-08T12:14:05;95155.53;;;14.27;37.72
70127;BME280;57491;42.694;23.314;2023-04-08T12:16:32;95140.84;;;14.32;37.47
70127;BME280;57491;42.694;23.314;2023-04-08T12:18:59;95159.97;;;14.33;37.97
70127;BME280;57491;42.694;23.314;2023-04-08T12:21:26;95157.91;;;13.96;38.27
70127;BME280;57491;42.694;23.314;2023-04-08T12:23:55;95151.28;;;14.06;38.24
70127;BME280;57491;42.694;23.314;2023-04-08T12:26:22;95146.03;;;14.06;38.09
70127;BME280;57491;42.694;23.314;2023-04-08T12:28:49;95158.31;;;14.06;38.04
70127;BME280;57491;42.694;23.314;2023-04-08T12:31:16;95156.75;;;13.51;38.91
70127;BME280;57491;42.694;23.314;2023-04-08T12:33:43;95145.13;;;13.19;39.59
70127;BME280;57491;42.694;23.314;2023-04-08T12:36:10;95132.28;;;13.17;39.57
70127;BME280;57491;42.694;23.314;2023-04-08T12:38:37;95140.16;;;13.30;40.69
70127;BME280;57491;42.694;23.314;2023-04-08T12:41:05;95137.84;;;13.49;39.67
70127;BME280;57491;42.694;23.314;2023-04-08T12:43:32;95134.78;;;13.38;40.16
70127;BME280;57491;42.694;23.314;2023-04-08T12:45:59;95142.94;;;12.94;41.59
70127;BME280;57491;42.694;23.314;2023-04-08T12:48:27;95155.63;;;12.70;41.64
70127;BME280;57491;42.694;23.314;2023-04-08T12:50:54;95137.06;;;12.58;41.69
70127;BME280;57491;42.694;23.314;2023-04-08T12:53:23;95155.25;;;12.73;41.72
70127;BME280;57491;42.694;23.314;2023-04-08T12:55:50;95142.78;;;12.19;42.48
70127;BME280;57491;42.694;23.314;2023-04-08T12:58:23;95147.88;;;12.06;43.94
70127;BME280;57491;42.694;23.314;2023-04-08T13:00:51;95160.34;;;12.11;43.62
70127;BME280;57491;42.694;23.314;2023-04-08T13:03:18;95167.94;;;11.91;44.95
70127;BME280;57491;42.694;23.314;2023-04-08T13:05:45;95172.47;;;11.82;45.44